Terminal Aerodrome Forecast
Issued by NWS Cleveland, OH

Home | Current Version | Previous Version | Text Only | Print | Product List | Glossary On
Versions: 1 2 3 4 5 6 7 8 9 10 11 12 13 14 15 16 17
000
FTUS41 KCLE 012300
TAFYNG
TAF
KYNG 012330Z 0200/0224 20010G18KT P6SM VCSH BKN050 BKN100
     FM020200 20008KT P6SM SCT060 BKN250
     FM021200 21006KT 5SM -RA BR OVC025
     FM021500 24006KT 3SM RA BR OVC008
     FM021900 27008KT P6SM BKN012 OVC080
     FM022200 27008KT P6SM SCT020 BKN080=

USA.gov is the U.S. government's official web portal to all federal, state and local government web resources and services.